sensor_id;sensor_type;location;lat;lon;timestamp;temperature;humidity
9482;DHT22;4779;48.062;11.672;2023-09-08T00:02:23;16.60;99.90
9482;DHT22;4779;48.062;11.672;2023-09-08T00:07:18;16.60;99.90
9482;DHT22;4779;48.062;11.672;2023-09-08T03:41:53;14.90;99.90
9482;DHT22;4779;48.062;11.672;2023-09-08T03:44:21;14.90;99.90
9482;DHT22;4779;48.062;11.672;2023-09-08T05:30:12;14.70;99.90
9482;DHT22;4779;48.062;11.672;2023-09-08T06:09:32;16.00;99.90
9482;DHT22;4779;48.062;11.672;2023-09-08T06:31:39;17.40;99.90
9482;DHT22;4779;48.062;11.672;2023-09-08T06:34:06;17.40;99.90
9482;DHT22;4779;48.062;11.672;2023-09-08T06:39:03;17.50;99.90
9482;DHT22;4779;48.062;11.672;2023-09-08T06:43:57;17.90;99.90
9482;DHT22;4779;48.062;11.672;2023-09-08T06:46:24;18.10;99.90
9482;DHT22;4779;48.062;11.672;2023-09-08T06:48:51;18.30;99.90
9482;DHT22;4779;48.062;11.672;2023-09-08T06:51:18;18.40;99.90
9482;DHT22;4779;48.062;11.672;2023-09-08T06:53:54;18.60;99.90
9482;DHT22;4779;48.062;11.672;2023-09-08T06:56:22;18.70;99.90
9482;DHT22;4779;48.062;11.672;2023-09-08T06:58:49;18.70;99.90
9482;DHT22;4779;48.062;11.672;2023-09-08T07:01:16;18.90;99.90
9482;DHT22;4779;48.062;11.672;2023-09-08T07:03:43;19.10;99.90
9482;DHT22;4779;48.062;11.672;2023-09-08T07:06:10;19.20;99.90
9482;DHT22;4779;48.062;11.672;2023-09-08T07:08:40;19.40;99.90
9482;DHT22;4779;48.062;11.672;2023-09-08T07:11:09;19.40;99.90
9482;DHT22;4779;48.062;11.672;2023-09-08T07:13:36;19.60;99.90
9482;DHT22;4779;48.062;11.672;2023-09-08T07:16:03;19.40;99.90
9482;DHT22;4779;48.062;11.672;2023-09-08T07:18:30;19.30;99.90
9482;DHT22;4779;48.062;11.672;2023-09-08T07:21:01;19.20;99.90
9482;DHT22;4779;48.062;11.672;2023-09-08T07:23:28;18.90;99.90
9482;DHT22;4779;48.062;11.672;2023-09-08T07:25:56;18.90;99.90
9482;DHT22;4779;48.062;11.672;2023-09-08T07:28:24;18.80;99.90
9482;DHT22;4779;48.062;11.672;2023-09-08T07:30:51;18.80;99.90
9482;DHT22;4779;48.062;11.672;2023-09-08T07:33:18;18.70;99.90
9482;DHT22;4779;48.062;11.672;2023-09-08T07:35:48;18.80;99.90
9482;DHT22;4779;48.062;11.672;2023-09-08T07:38:15;18.80;99.90
9482;DHT22;4779;48.062;11.672;2023-09-08T07:40:42;18.90;99.90
9482;DHT22;4779;48.062;11.672;2023-09-08T07:43:09;19.00;99.90
9482;DHT22;4779;48.062;11.672;2023-09-08T07:45:37;19.00;99.90
9482;DHT22;4779;48.062;11.672;2023-09-08T07:48:06;19.00;99.90
9482;DHT22;4779;48.062;11.672;2023-09-08T07:50:33;19.00;99.90
9482;DHT22;4779;48.062;11.672;2023-09-08T07:53:00;19.00;99.90
9482;DHT22;4779;48.062;11.672;2023-09-08T07:55:27;19.10;99.90
9482;DHT22;4779;48.062;11.672;2023-09-08T07:57:55;19.20;99.90
9482;DHT22;4779;48.062;11.672;2023-09-08T08:00:23;19.10;99.90
9482;DHT22;4779;48.062;11.672;2023-09-08T08:02:54;19.10;99.90
9482;DHT22;4779;48.062;11.672;2023-09-08T08:05:21;19.10;99.90
9482;DHT22;4779;48.062;11.672;2023-09-08T08:07:48;19.20;99.90
9482;DHT22;4779;48.062;11.672;2023-09-08T08:10:16;19.30;99.90
9482;DHT22;4779;48.062;11.672;2023-09-08T08:12:44;19.40;99.90
9482;DHT22;4779;48.062;11.672;2023-09-08T08:15:11;19.50;99.90
9482;DHT22;4779;48.062;11.672;2023-09-08T08:17:41;19.60;99.90
9482;DHT22;4779;48.062;11.672;2023-09-08T08:20:11;19.70;99.90
9482;DHT22;4779;48.062;11.672;2023-09-08T08:22:43;19.80;99.90
9482;DHT22;4779;48.062;11.672;2023-09-08T08:25:11;19.90;99.90
9482;DHT22;4779;48.062;11.672;2023-09-08T08:27:40;20.00;99.90
9482;DHT22;4779;48.062;11.672;2023-09-08T09:12:10;22.10;99.90
9482;DHT22;4779;48.062;11.672;2023-09-08T09:14:37;22.30;99.90
9482;DHT22;4779;48.062;11.672;2023-09-08T09:17:04;22.50;99.90
9482;DHT22;4779;48.062;11.672;2023-09-08T09:19:31;22.70;99.90
9482;DHT22;4779;48.062;11.672;2023-09-08T09:26:58;23.00;99.90
9482;DHT22;4779;48.062;11.672;2023-09-08T09:29:27;23.20;99.90
9482;DHT22;4779;48.062;11.672;2023-09-08T09:31:56;23.30;99.90
9482;DHT22;4779;48.062;11.672;2023-09-08T09:34:23;23.40;99.90
9482;DHT22;4779;48.062;11.672;2023-09-08T09:36:51;23.50;99.90
9482;DHT22;4779;48.062;11.672;2023-09-08T09:39:19;23.70;99.90
9482;DHT22;4779;48.062;11.672;2023-09-08T09:41:47;23.70;99.90
9482;DHT22;4779;48.062;11.672;2023-09-08T09:44:15;23.90;99.90
9482;DHT22;4779;48.062;11.672;2023-09-08T09:46:47;24.20;99.90
9482;DHT22;4779;48.062;11.672;2023-09-08T09:49:15;24.30;99.90
9482;DHT22;4779;48.062;11.672;2023-09-08T09:51:44;24.60;99.90
9482;DHT22;4779;48.062;11.672;2023-09-08T09:54:11;24.80;99.90
9482;DHT22;4779;48.062;11.672;2023-09-08T09:56:39;25.00;99.90
9482;DHT22;4779;48.062;11.672;2023-09-08T09:59:08;25.20;99.90
9482;DHT22;4779;48.062;11.672;2023-09-08T10:01:36;25.50;99.90
9482;DHT22;4779;48.062;11.672;2023-09-08T10:04:05;25.90;99.90
9482;DHT22;4779;48.062;11.672;2023-09-08T10:06:33;26.20;99.90
9482;DHT22;4779;48.062;11.672;2023-09-08T10:09:01;26.50;99.90
9482;DHT22;4779;48.062;11.672;2023-09-08T10:11:35;26.80;99.90
9482;DHT22;4779;48.062;11.672;2023-09-08T10:14:04;27.10;99.90
9482;DHT22;4779;48.062;11.672;2023-09-08T10:16:39;27.40;99.90
9482;DHT22;4779;48.062;11.672;2023-09-08T10:19:09;27.40;99.90
9482;DHT22;4779;48.062;11.672;2023-09-08T10:21:40;27.70;99.90
9482;DHT22;4779;48.062;11.672;2023-09-08T10:24:14;28.00;99.90
9482;DHT22;4779;48.062;11.672;2023-09-08T10:26:44;28.20;99.90
9482;DHT22;4779;48.062;11.672;2023-09-08T10:29:13;28.60;99.90
9482;DHT22;4779;48.062;11.672;2023-09-08T10:31:41;28.70;99.90
9482;DHT22;4779;48.062;11.672;2023-09-08T10:34:10;29.00;99.90
9482;DHT22;4779;48.062;11.672;2023-09-08T10:36:37;29.20;99.90
9482;DHT22;4779;48.062;11.672;2023-09-08T10:39:27;29.20;99.90
9482;DHT22;4779;48.062;11.672;2023-09-08T10:42:22;29.40;99.90
9482;DHT22;4779;48.062;11.672;2023-09-08T10:44:59;29.70;99.90
9482;DHT22;4779;48.062;11.672;2023-09-08T10:47:32;29.90;99.90
9482;DHT22;4779;48.062;11.672;2023-09-08T10:50:02;30.10;99.90
9482;DHT22;4779;48.062;11.672;2023-09-08T10:52:31;30.10;99.90
9482;DHT22;4779;48.062;11.672;2023-09-08T10:55:00;30.20;99.90
9482;DHT22;4779;48.062;11.672;2023-09-08T10:57:28;30.40;99.90
9482;DHT22;4779;48.062;11.672;2023-09-08T11:00:00;30.30;99.90
9482;DHT22;4779;48.062;11.672;2023-09-08T11:02:35;30.30;99.90
9482;DHT22;4779;48.062;11.672;2023-09-08T11:05:07;30.30;99.90
9482;DHT22;4779;48.062;11.672;2023-09-08T11:07:35;30.10;99.90
9482;DHT22;4779;48.062;11.672;2023-09-08T11:10:03;30.10;99.90
9482;DHT22;4779;48.062;11.672;2023-09-08T11:12:31;30.40;99.90
9482;DHT22;4779;48.062;11.672;2023-09-08T11:14:58;30.50;99.90
9482;DHT22;4779;48.062;11.672;2023-09-08T11:17:26;30.40;99.90
9482;DHT22;4779;48.062;11.672;2023-09-08T11:19:54;30.30;99.90
9482;DHT22;4779;48.062;11.672;2023-09-08T11:22:24;30.50;99.90
9482;DHT22;4779;48.062;11.672;2023-09-08T11:24:52;30.50;99.90
9482;DHT22;4779;48.062;11.672;2023-09-08T11:27:19;30.70;99.90
9482;DHT22;4779;48.062;11.672;2023-09-08T11:29:47;30.70;99.90
9482;DHT22;4779;48.062;11.672;2023-09-08T11:32:14;30.70;99.90
9482;DHT22;4779;48.062;11.672;2023-09-08T11:34:41;30.80;99.90
9482;DHT22;4779;48.062;11.672;2023-09-08T11:37:09;30.90;99.90
9482;DHT22;4779;48.062;11.672;2023-09-08T11:39:41;31.00;99.90
9482;DHT22;4779;48.062;11.672;2023-09-08T11:42:11;31.00;99.90
9482;DHT22;4779;48.062;11.672;2023-09-08T11:44:38;30.90;99.90
9482;DHT22;4779;48.062;11.672;2023-09-08T11:47:07;30.80;99.90
9482;DHT22;4779;48.062;11.672;2023-09-08T11:49:35;30.70;99.90
9482;DHT22;4779;48.062;11.672;2023-09-08T11:52:02;30.90;99.90
9482;DHT22;4779;48.062;11.672;2023-09-08T11:54:29;30.80;99.90
9482;DHT22;4779;48.062;11.672;2023-09-08T11:56:59;30.80;99.90
9482;DHT22;4779;48.062;11.672;2023-09-08T11:59:28;30.70;99.90
9482;DHT22;4779;48.062;11.672;2023-09-08T12:01:56;30.70;99.90
9482;DHT22;4779;48.062;11.672;2023-09-08T12:04:26;30.80;99.90
9482;DHT22;4779;48.062;11.672;2023-09-08T12:06:54;30.90;99.90
9482;DHT22;4779;48.062;11.672;2023-09-08T12:09:22;30.70;99.90
9482;DHT22;4779;48.062;11.672;2023-09-08T12:11:49;30.70;99.90
9482;DHT22;4779;48.062;11.672;2023-09-08T12:14:23;30.90;99.90
9482;DHT22;4779;48.062;11.672;2023-09-08T12:17:05;31.00;99.90
9482;DHT22;4779;48.062;11.672;2023-09-08T12:19:33;31.00;99.90
9482;DHT22;4779;48.062;11.672;2023-09-08T12:22:04;31.20;99.90
9482;DHT22;4779;48.062;11.672;2023-09-08T12:24:50;31.30;99.90
9482;DHT22;4779;48.062;11.672;2023-09-08T12:27:23;31.40;99.90
9482;DHT22;4779;48.062;11.672;2023-09-08T12:29:56;31.40;99.90
9482;DHT22;4779;48.062;11.672;2023-09-08T12:32:24;31.30;99.90
9482;DHT22;4779;48.062;11.672;2023-09-08T12:34:52;31.00;99.90
9482;DHT22;4779;48.062;11.672;2023-09-08T12:37:22;31.00;99.90
9482;DHT22;4779;48.062;11.672;2023-09-08T12:39:50;31.10;99.90
9482;DHT22;4779;48.062;11.672;2023-09-08T12:42:18;31.10;99.90
9482;DHT22;4779;48.062;11.672;2023-09-08T12:44:46;31.00;99.90
9482;DHT22;4779;48.062;11.672;2023-09-08T12:47:15;31.00;99.90
9482;DHT22;4779;48.062;11.672;2023-09-08T12:49:42;31.10;99.90
9482;DHT22;4779;48.062;11.672;2023-09-08T12:52:09;31.00;99.90
9482;DHT22;4779;48.062;11.672;2023-09-08T12:54:36;30.80;99.90
9482;DHT22;4779;48.062;11.672;2023-09-08T12:57:04;30.60;99.90
9482;DHT22;4779;48.062;11.672;2023-09-08T12:59:31;30.50;99.90
9482;DHT22;4779;48.062;11.672;2023-09-08T13:01:58;30.60;99.90
9482;DHT22;4779;48.062;11.672;2023-09-08T13:04:26;30.60;99.90
9482;DHT22;4779;48.062;11.672;2023-09-08T13:06:53;30.80;99.90
9482;DHT22;4779;48.062;11.672;2023-09-08T13:09:20;30.70;99.90
9482;DHT22;4779;48.062;11.672;2023-09-08T13:11:47;30.90;99.90
9482;DHT22;4779;48.062;11.672;2023-09-08T13:14:14;30.80;99.90
9482;DHT22;4779;48.062;11.672;2023-09-08T13:16:41;30.90;99.90
9482;DHT22;4779;48.062;11.672;2023-09-08T13:19:08;30.80;99.90
9482;DHT22;4779;48.062;11.672;2023-09-08T13:21:37;30.90;99.90
9482;DHT22;4779;48.062;11.672;2023-09-08T13:24:07;30.80;99.90
9482;DHT22;4779;48.062;11.672;2023-09-08T13:26:34;30.90;99.90
9482;DHT22;4779;48.062;11.672;2023-09-08T13:29:01;31.00;99.90
9482;DHT22;4779;48.062;11.672;2023-09-08T13:31:29;31.00;99.90
9482;DHT22;4779;48.062;11.672;2023-09-08T13:33:56;31.00;99.90
9482;DHT22;4779;48.062;11.672;2023-09-08T13:36:23;31.10;99.90
9482;DHT22;4779;48.062;11.672;2023-09-08T13:38:51;31.10;99.90
9482;DHT22;4779;48.062;11.672;2023-09-08T13:41:18;31.10;99.90
9482;DHT22;4779;48.062;11.672;2023-09-08T13:43:45;31.10;99.90
9482;DHT22;4779;48.062;11.672;2023-09-08T13:46:12;31.10;99.90
9482;DHT22;4779;48.062;11.672;2023-09-08T13:48:39;31.10;99.90
9482;DHT22;4779;48.062;11.672;2023-09-08T13:51:06;31.10;99.90
9482;DHT22;4779;48.062;11.672;2023-09-08T13:53:33;31.00;99.90
9482;DHT22;4779;48.062;11.672;2023-09-08T13:56:02;31.00;99.90
9482;DHT22;4779;48.062;11.672;2023-09-08T13:58:31;31.20;99.90
9482;DHT22;4779;48.062;11.672;2023-09-08T14:00:58;31.10;99.90
9482;DHT22;4779;48.062;11.672;2023-09-08T14:03:25;31.10;99.90
9482;DHT22;4779;48.062;11.672;2023-09-08T14:05:52;31.00;99.90
9482;DHT22;4779;48.062;11.672;2023-09-08T14:08:19;30.70;99.90
9482;DHT22;4779;48.062;11.672;2023-09-08T14:10:46;30.50;99.90
9482;DHT22;4779;48.062;11.672;2023-09-08T14:13:14;30.40;99.90
9482;DHT22;4779;48.062;11.672;2023-09-08T14:15:41;30.20;99.90
9482;DHT22;4779;48.062;11.672;2023-09-08T14:18:08;30.20;99.90
9482;DHT22;4779;48.062;11.672;2023-09-08T14:20:36;30.40;99.90
9482;DHT22;4779;48.062;11.672;2023-09-08T14:23:03;30.40;99.90
9482;DHT22;4779;48.062;11.672;2023-09-08T14:25:31;30.50;99.90
9482;DHT22;4779;48.062;11.672;2023-09-08T14:27:58;30.70;99.90
9482;DHT22;4779;48.062;11.672;2023-09-08T14:30:26;30.70;99.90
9482;DHT22;4779;48.062;11.672;2023-09-08T14:32:53;30.60;99.90
9482;DHT22;4779;48.062;11.672;2023-09-08T14:35:20;30.70;99.90
9482;DHT22;4779;48.062;11.672;2023-09-08T14:37:48;30.70;99.90
9482;DHT22;4779;48.062;11.672;2023-09-08T14:40:15;30.70;99.90
9482;DHT22;4779;48.062;11.672;2023-09-08T14:42:44;30.60;99.90
9482;DHT22;4779;48.062;11.672;2023-09-08T14:45:12;30.60;99.90
9482;DHT22;4779;48.062;11.672;2023-09-08T14:47:40;30.60;99.90
9482;DHT22;4779;48.062;11.672;2023-09-08T14:50:08;30.90;99.90
9482;DHT22;4779;48.062;11.672;2023-09-08T14:52:35;31.20;99.90
9482;DHT22;4779;48.062;11.672;2023-09-08T14:55:03;31.20;99.90
9482;DHT22;4779;48.062;11.672;2023-09-08T14:57:30;31.10;99.90
9482;DHT22;4779;48.062;11.672;2023-09-08T14:59:59;31.00;99.90
9482;DHT22;4779;48.062;11.672;2023-09-08T15:02:34;30.90;99.90
9482;DHT22;4779;48.062;11.672;2023-09-08T15:05:03;30.80;99.90
9482;DHT22;4779;48.062;11.672;2023-09-08T15:07:30;30.70;99.90
9482;DHT22;4779;48.062;11.672;2023-09-08T15:09:57;30.40;99.90
9482;DHT22;4779;48.062;11.672;2023-09-08T15:12:24;30.30;99.90
9482;DHT22;4779;48.062;11.672;2023-09-08T15:14:51;30.20;99.90
9482;DHT22;4779;48.062;11.672;2023-09-08T15:17:18;30.20;99.90
9482;DHT22;4779;48.062;11.672;2023-09-08T15:19:45;30.10;99.90
9482;DHT22;4779;48.062;11.672;2023-09-08T15:22:14;30.00;99.90
9482;DHT22;4779;48.062;11.672;2023-09-08T15:24:41;29.80;99.90
9482;DHT22;4779;48.062;11.672;2023-09-08T15:27:08;29.50;99.90
9482;DHT22;4779;48.062;11.672;2023-09-08T15:29:35;29.40;99.90
9482;DHT22;4779;48.062;11.672;2023-09-08T15:32:03;29.40;99.90
9482;DHT22;4779;48.062;11.672;2023-09-08T15:34:31;29.10;99.90
9482;DHT22;4779;48.062;11.672;2023-09-08T15:36:58;28.90;99.90
9482;DHT22;4779;48.062;11.672;2023-09-08T15:39:27;28.70;99.90
9482;DHT22;4779;48.062;11.672;2023-09-08T15:41:54;28.60;99.90
9482;DHT22;4779;48.062;11.672;2023-09-08T15:44:21;28.50;99.90
9482;DHT22;4779;48.062;11.672;2023-09-08T15:46:49;28.40;99.90
9482;DHT22;4779;48.062;11.672;2023-09-08T15:49:16;28.20;99.90
9482;DHT22;4779;48.062;11.672;2023-09-08T15:51:43;28.10;99.90
9482;DHT22;4779;48.062;11.672;2023-09-08T15:54:10;27.90;99.90
9482;DHT22;4779;48.062;11.672;2023-09-08T15:56:39;27.80;99.90
9482;DHT22;4779;48.062;11.672;2023-09-08T15:59:06;27.60;99.90
9482;DHT22;4779;48.062;11.672;2023-09-08T16:01:33;27.50;99.90
9482;DHT22;4779;48.062;11.672;2023-09-08T16:04:00;27.40;99.90
9482;DHT22;4779;48.062;11.672;2023-09-08T16:06:27;27.30;99.90
9482;DHT22;4779;48.062;11.672;2023-09-08T16:08:54;27.10;99.90
9482;DHT22;4779;48.062;11.672;2023-09-08T16:11:21;27.00;99.90
9482;DHT22;4779;48.062;11.672;2023-09-08T16:13:50;26.90;99.90
9482;DHT22;4779;48.062;11.672;2023-09-08T16:16:17;26.80;99.90
9482;DHT22;4779;48.062;11.672;2023-09-08T16:18:44;26.70;99.90
9482;DHT22;4779;48.062;11.672;2023-09-08T16:21:11;26.60;99.90
9482;DHT22;4779;48.062;11.672;2023-09-08T16:23:38;26.60;99.90
9482;DHT22;4779;48.062;11.672;2023-09-08T16:26:05;26.50;99.90
9482;DHT22;4779;48.062;11.672;2023-09-08T16:28:32;26.40;99.90
9482;DHT22;4779;48.062;11.672;2023-09-08T16:31:04;26.40;99.90
9482;DHT22;4779;48.062;11.672;2023-09-08T16:33:31;26.30;99.90
9482;DHT22;4779;48.062;11.672;2023-09-08T16:35:58;26.20;99.90
9482;DHT22;4779;48.062;11.672;2023-09-08T16:38:25;26.10;99.90
9482;DHT22;4779;48.062;11.672;2023-09-08T16:40:52;26.00;99.90
9482;DHT22;4779;48.062;11.672;2023-09-08T16:43:19;26.00;99.90
9482;DHT22;4779;48.062;11.672;2023-09-08T16:45:46;25.90;99.90
9482;DHT22;4779;48.062;11.672;2023-09-08T16:48:14;25.80;99.90
9482;DHT22;4779;48.062;11.672;2023-09-08T16:50:42;25.70;99.90
9482;DHT22;4779;48.062;11.672;2023-09-08T16:53:09;25.60;99.90
9482;DHT22;4779;48.062;11.672;2023-09-08T16:55:36;25.50;99.90
9482;DHT22;4779;48.062;11.672;2023-09-08T16:58:03;25.50;99.90
9482;DHT22;4779;48.062;11.672;2023-09-08T17:00:31;25.40;99.90
9482;DHT22;4779;48.062;11.672;2023-09-08T17:02:58;25.30;99.90
9482;DHT22;4779;48.062;11.672;2023-09-08T17:05:26;25.30;99.90
9482;DHT22;4779;48.062;11.672;2023-09-08T17:07:54;25.20;99.90
9482;DHT22;4779;48.062;11.672;2023-09-08T17:10:22;25.10;99.90
9482;DHT22;4779;48.062;11.672;2023-09-08T17:12:52;25.10;99.90
9482;DHT22;4779;48.062;11.672;2023-09-08T17:15:19;25.00;99.90
9482;DHT22;4779;48.062;11.672;2023-09-08T17:17:46;24.90;99.90
9482;DHT22;4779;48.062;11.672;2023-09-08T17:20:13;24.90;99.90
9482;DHT22;4779;48.062;11.672;2023-09-08T17:22:42;24.80;99.90
9482;DHT22;4779;48.062;11.672;2023-09-08T17:25:09;24.70;99.90
9482;DHT22;4779;48.062;11.672;2023-09-08T17:27:36;24.60;99.90
9482;DHT22;4779;48.062;11.672;2023-09-08T17:30:04;24.60;99.90
9482;DHT22;4779;48.062;11.672;2023-09-08T17:32:31;24.50;99.90
9482;DHT22;4779;48.062;11.672;2023-09-08T17:35:00;24.40;99.90
9482;DHT22;4779;48.062;11.672;2023-09-08T17:37:28;24.40;99.90
9482;DHT22;4779;48.062;11.672;2023-09-08T17:39:56;24.30;99.90
9482;DHT22;4779;48.062;11.672;2023-09-08T17:42:24;24.20;99.90
9482;DHT22;4779;48.062;11.672;2023-09-08T17:44:51;24.10;99.90
9482;DHT22;4779;48.062;11.672;2023-09-08T17:47:18;24.00;99.90
9482;DHT22;4779;48.062;11.672;2023-09-08T17:49:45;23.90;99.90
9482;DHT22;4779;48.062;11.672;2023-09-08T17:52:12;23.90;99.90
9482;DHT22;4779;48.062;11.672;2023-09-08T17:54:39;23.80;99.90
9482;DHT22;4779;48.062;11.672;2023-09-08T17:57:08;23.80;99.90
9482;DHT22;4779;48.062;11.672;2023-09-08T17:59:35;23.70;99.90
9482;DHT22;4779;48.062;11.672;2023-09-08T18:02:03;23.50;99.90
9482;DHT22;4779;48.062;11.672;2023-09-08T18:04:33;23.50;99.90
9482;DHT22;4779;48.062;11.672;2023-09-08T18:07:00;23.50;99.90
9482;DHT22;4779;48.062;11.672;2023-09-08T18:09:29;23.40;99.90
9482;DHT22;4779;48.062;11.672;2023-09-08T18:11:56;23.30;99.90
9482;DHT22;4779;48.062;11.672;2023-09-08T18:14:24;23.30;99.90
9482;DHT22;4779;48.062;11.672;2023-09-08T18:16:51;23.20;99.90
9482;DHT22;4779;48.062;11.672;2023-09-08T18:19:19;23.20;99.90
9482;DHT22;4779;48.062;11.672;2023-09-08T18:21:46;23.10;99.90
9482;DHT22;4779;48.062;11.672;2023-09-08T18:24:13;23.00;99.90
9482;DHT22;4779;48.062;11.672;2023-09-08T18:26:40;23.10;99.90
9482;DHT22;4779;48.062;11.672;2023-09-08T18:29:08;22.90;99.90
9482;DHT22;4779;48.062;11.672;2023-09-08T18:31:36;22.90;99.90
9482;DHT22;4779;48.062;11.672;2023-09-08T18:34:03;22.90;99.90
9482;DHT22;4779;48.062;11.672;2023-09-08T18:36:30;22.80;99.90
9482;DHT22;4779;48.062;11.672;2023-09-08T18:38:58;22.70;99.90
9482;DHT22;4779;48.062;11.672;2023-09-08T18:41:25;22.70;99.90
9482;DHT22;4779;48.062;11.672;2023-09-08T18:43:52;22.70;99.90
9482;DHT22;4779;48.062;11.672;2023-09-08T18:46:20;22.60;99.90
9482;DHT22;4779;48.062;11.672;2023-09-08T18:48:48;22.60;99.90
9482;DHT22;4779;48.062;11.672;2023-09-08T18:51:16;22.50;99.90
9482;DHT22;4779;48.062;11.672;2023-09-08T18:53:43;22.50;99.90
9482;DHT22;4779;48.062;11.672;2023-09-08T18:56:10;22.50;99.90
9482;DHT22;4779;48.062;11.672;2023-09-08T18:58:39;22.40;99.90
9482;DHT22;4779;48.062;11.672;2023-09-08T19:01:06;22.40;99.90
9482;DHT22;4779;48.062;11.672;2023-09-08T19:03:34;22.30;99.90
9482;DHT22;4779;48.062;11.672;2023-09-08T19:06:04;22.30;99.90
9482;DHT22;4779;48.062;11.672;2023-09-08T19:08:32;22.20;99.90
9482;DHT22;4779;48.062;11.672;2023-09-08T19:10:59;22.20;99.90
9482;DHT22;4779;48.062;11.672;2023-09-08T19:13:26;22.10;99.90
9482;DHT22;4779;48.062;11.672;2023-09-08T19:15:53;22.20;99.90
9482;DHT22;4779;48.062;11.672;2023-09-08T19:18:20;22.10;99.90
9482;DHT22;4779;48.062;11.672;2023-09-08T19:20:47;22.10;99.90
9482;DHT22;4779;48.062;11.672;2023-09-08T19:23:19;22.00;99.90
9482;DHT22;4779;48.062;11.672;2023-09-08T19:25:47;21.90;99.90
9482;DHT22;4779;48.062;11.672;2023-09-08T19:28:14;21.90;99.90
9482;DHT22;4779;48.062;11.672;2023-09-08T19:30:46;21.90;99.90
9482;DHT22;4779;48.062;11.672;2023-09-08T19:33:13;21.80;99.90
9482;DHT22;4779;48.062;11.672;2023-09-08T19:35:40;21.80;99.90
9482;DHT22;4779;48.062;11.672;2023-09-08T19:38:10;21.80;99.90
9482;DHT22;4779;48.062;11.672;2023-09-08T19:40:39;21.70;99.90
9482;DHT22;4779;48.062;11.672;2023-09-08T19:43:06;21.70;99.90
9482;DHT22;4779;48.062;11.672;2023-09-08T19:45:35;21.70;99.90
9482;DHT22;4779;48.062;11.672;2023-09-08T19:48:03;21.60;99.90
9482;DHT22;4779;48.062;11.672;2023-09-08T19:50:30;21.50;99.90
9482;DHT22;4779;48.062;11.672;2023-09-08T19:52:57;21.60;99.90
9482;DHT22;4779;48.062;11.672;2023-09-08T19:55:25;21.50;99.90
9482;DHT22;4779;48.062;11.672;2023-09-08T19:57:53;21.40;99.90
9482;DHT22;4779;48.062;11.672;2023-09-08T20:00:20;21.40;99.90
9482;DHT22;4779;48.062;11.672;2023-09-08T20:02:47;21.30;99.90
9482;DHT22;4779;48.062;11.672;2023-09-08T20:05:15;21.30;99.90
9482;DHT22;4779;48.062;11.672;2023-09-08T20:07:42;21.30;99.90
9482;DHT22;4779;48.062;11.672;2023-09-08T20:10:10;21.20;99.90
9482;DHT22;4779;48.062;11.672;2023-09-08T20:12:37;21.20;99.90
9482;DHT22;4779;48.062;11.672;2023-09-08T20:15:09;21.10;99.90
9482;DHT22;4779;48.062;11.672;2023-09-08T20:17:36;21.10;99.90
9482;DHT22;4779;48.062;11.672;2023-09-08T20:20:04;21.00;99.90
9482;DHT22;4779;48.062;11.672;2023-09-08T20:22:32;21.00;99.90
9482;DHT22;4779;48.062;11.672;2023-09-08T20:24:59;21.00;99.90
9482;DHT22;4779;48.062;11.672;2023-09-08T20:27:26;21.00;99.90
9482;DHT22;4779;48.062;11.672;2023-09-08T20:29:53;21.00;99.90
9482;DHT22;4779;48.062;11.672;2023-09-08T20:32:23;20.90;99.90
9482;DHT22;4779;48.062;11.672;2023-09-08T20:34:52;20.90;99.90
9482;DHT22;4779;48.062;11.672;2023-09-08T20:37:19;20.80;99.90
9482;DHT22;4779;48.062;11.672;2023-09-08T20:39:46;20.80;99.90
9482;DHT22;4779;48.062;11.672;2023-09-08T20:42:13;20.80;99.90
9482;DHT22;4779;48.062;11.672;2023-09-08T20:44:40;20.80;99.90
9482;DHT22;4779;48.062;11.672;2023-09-08T20:47:08;20.80;99.90
9482;DHT22;4779;48.062;11.672;2023-09-08T20:49:38;20.70;99.90
9482;DHT22;4779;48.062;11.672;2023-09-08T20:52:05;20.70;99.90
9482;DHT22;4779;48.062;11.672;2023-09-08T20:54:37;20.60;99.90
9482;DHT22;4779;48.062;11.672;2023-09-08T20:57:04;20.60;99.90
9482;DHT22;4779;48.062;11.672;2023-09-08T20:59:31;20.60;99.90
9482;DHT22;4779;48.062;11.672;2023-09-08T21:01:58;20.60;99.90
9482;DHT22;4779;48.062;11.672;2023-09-08T21:04:26;20.60;99.90
9482;DHT22;4779;48.062;11.672;2023-09-08T21:06:54;20.60;99.90
9482;DHT22;4779;48.062;11.672;2023-09-08T21:09:21;20.50;99.90
9482;DHT22;4779;48.062;11.672;2023-09-08T21:11:48;20.50;99.90
9482;DHT22;4779;48.062;11.672;2023-09-08T21:14:16;20.50;99.90
9482;DHT22;4779;48.062;11.672;2023-09-08T21:16:43;20.40;99.90
9482;DHT22;4779;48.062;11.672;2023-09-08T21:19:10;20.30;99.90
9482;DHT22;4779;48.062;11.672;2023-09-08T21:21:37;20.30;99.90
9482;DHT22;4779;48.062;11.672;2023-09-08T21:24:06;20.30;99.90
9482;DHT22;4779;48.062;11.672;2023-09-08T21:26:33;20.20;99.90
9482;DHT22;4779;48.062;11.672;2023-09-08T21:29:00;20.30;99.90
9482;DHT22;4779;48.062;11.672;2023-09-08T21:31:27;20.20;99.90
9482;DHT22;4779;48.062;11.672;2023-09-08T21:33:55;20.20;99.90
9482;DHT22;4779;48.062;11.672;2023-09-08T21:36:22;20.10;99.90
9482;DHT22;4779;48.062;11.672;2023-09-08T21:38:49;20.10;99.90
9482;DHT22;4779;48.062;11.672;2023-09-08T21:41:17;20.10;99.90
9482;DHT22;4779;48.062;11.672;2023-09-08T21:43:44;20.10;99.90
9482;DHT22;4779;48.062;11.672;2023-09-08T21:46:11;20.10;99.90
9482;DHT22;4779;48.062;11.672;2023-09-08T21:48:38;20.10;99.90
9482;DHT22;4779;48.062;11.672;2023-09-08T21:51:05;20.00;99.90
9482;DHT22;4779;48.062;11.672;2023-09-08T21:53:32;20.00;99.90
9482;DHT22;4779;48.062;11.672;2023-09-08T21:55:59;20.00;99.90
9482;DHT22;4779;48.062;11.672;2023-09-08T21:58:28;20.00;99.90
9482;DHT22;4779;48.062;11.672;2023-09-08T22:00:55;20.00;99.90
9482;DHT22;4779;48.062;11.672;2023-09-08T22:03:22;20.00;99.90
9482;DHT22;4779;48.062;11.672;2023-09-08T22:05:49;19.90;99.90
9482;DHT22;4779;48.062;11.672;2023-09-08T22:08:16;19.90;99.90
9482;DHT22;4779;48.062;11.672;2023-09-08T22:10:43;19.80;99.90
9482;DHT22;4779;48.062;11.672;2023-09-08T22:13:11;19.80;99.90
9482;DHT22;4779;48.062;11.672;2023-09-08T22:15:39;19.80;99.90
9482;DHT22;4779;48.062;11.672;2023-09-08T22:18:06;19.70;99.90
9482;DHT22;4779;48.062;11.672;2023-09-08T22:20:33;19.70;99.90
9482;DHT22;4779;48.062;11.672;2023-09-08T22:23:00;19.70;99.90
9482;DHT22;4779;48.062;11.672;2023-09-08T22:25:32;19.70;99.90
9482;DHT22;4779;48.062;11.672;2023-09-08T22:27:59;19.70;99.90
9482;DHT22;4779;48.062;11.672;2023-09-08T22:30:27;19.70;99.90
9482;DHT22;4779;48.062;11.672;2023-09-08T22:32:55;19.70;99.90
9482;DHT22;4779;48.062;11.672;2023-09-08T22:35:22;19.70;99.90
9482;DHT22;4779;48.062;11.672;2023-09-08T22:37:49;19.60;99.90
9482;DHT22;4779;48.062;11.672;2023-09-08T22:40:16;19.60;99.90
9482;DHT22;4779;48.062;11.672;2023-09-08T22:42:44;19.50;99.90
9482;DHT22;4779;48.062;11.672;2023-09-08T22:45:11;19.50;99.90
9482;DHT22;4779;48.062;11.672;2023-09-08T22:47:38;19.50;99.90
9482;DHT22;4779;48.062;11.672;2023-09-08T22:50:07;19.50;99.90
9482;DHT22;4779;48.062;11.672;2023-09-08T22:52:36;19.50;99.90
9482;DHT22;4779;48.062;11.672;2023-09-08T22:55:06;19.40;99.90
9482;DHT22;4779;48.062;11.672;2023-09-08T22:57:34;19.40;99.90